createdAt,value
2023-04-09T00:03:22.567Z,100.00
2023-04-09T00:08:27.870Z,100.00
2023-04-09T00:13:39.255Z,100.00
2023-04-09T00:18:43.688Z,100.00
2023-04-09T00:23:48.761Z,100.00
2023-04-09T00:28:52.767Z,100.00
2023-04-09T00:33:57.089Z,100.00
2023-04-09T00:39:02.231Z,100.00
2023-04-09T00:44:06.015Z,100.00
2023-04-09T00:49:09.780Z,100.00
2023-04-09T00:54:16.095Z,100.00
2023-04-09T00:59:20.489Z,100.00
2023-04-09T01:04:25.449Z,100.00
2023-04-09T01:09:36.576Z,100.00
2023-04-09T01:14:46.960Z,100.00
2023-04-09T01:19:59.662Z,100.00
2023-04-09T01:25:17.069Z,100.00
2023-04-09T01:30:23.673Z,100.00
2023-04-09T01:35:29.730Z,100.00
2023-04-09T01:40:33.926Z,100.00
2023-04-09T01:45:39.915Z,100.00
2023-04-09T01:50:44.867Z,100.00
2023-04-09T01:55:48.725Z,100.00
2023-04-09T02:00:58.413Z,100.00
2023-04-09T02:06:07.337Z,100.00
2023-04-09T02:11:12.425Z,100.00
2023-04-09T02:16:18.687Z,100.00
2023-04-09T02:21:23.349Z,100.00
2023-04-09T02:26:27.126Z,100.00
2023-04-09T02:31:32.293Z,100.00
2023-04-09T02:36:36.194Z,100.00
2023-04-09T02:41:40.013Z,100.00
2023-04-09T02:46:48.323Z,100.00
2023-04-09T02:51:51.828Z,100.00
2023-04-09T02:56:56.302Z,100.00
2023-04-09T03:02:01.489Z,100.00
2023-04-09T03:07:05.467Z,100.00
2023-04-09T03:12:09.341Z,100.00
2023-04-09T03:17:14.471Z,100.00
2023-04-09T03:22:18.192Z,100.00
2023-04-09T03:27:22.605Z,100.00
2023-04-09T03:32:28.810Z,100.00
2023-04-09T03:37:33.061Z,100.00
2023-04-09T03:42:37.417Z,100.00
2023-04-09T03:47:45.358Z,100.00
2023-04-09T03:52:49.513Z,100.00
2023-04-09T03:57:53.260Z,100.00
2023-04-09T04:02:59.781Z,100.00
2023-04-09T04:08:07.782Z,100.00
2023-04-09T04:13:11.782Z,100.00
2023-04-09T04:18:18.529Z,100.00
2023-04-09T04:23:23.556Z,100.00
2023-04-09T04:28:28.131Z,100.00
2023-04-09T04:33:33.514Z,100.00
2023-04-09T04:38:38.059Z,100.00
2023-04-09T04:43:42.436Z,100.00
2023-04-09T04:48:51.289Z,100.00
2023-04-09T04:53:55.912Z,100.00
2023-04-09T04:59:01.393Z,100.00
2023-04-09T05:04:09.283Z,100.00
2023-04-09T05:09:13.412Z,100.00
2023-04-09T05:14:18.513Z,100.00
2023-04-09T05:19:23.648Z,100.00
2023-04-09T05:24:30.122Z,100.00
2023-04-09T05:29:33.864Z,100.00
2023-04-09T05:34:40.353Z,100.00
2023-04-09T05:39:44.161Z,100.00
2023-04-09T05:44:47.983Z,100.00
2023-04-09T05:49:53.621Z,100.00
2023-04-09T05:54:57.500Z,100.00
2023-04-09T06:00:02.036Z,100.00
2023-04-09T06:05:08.204Z,100.00
2023-04-09T06:10:12.249Z,100.00
2023-04-09T06:15:16.423Z,100.00
2023-04-09T06:20:21.706Z,100.00
2023-04-09T06:25:25.646Z,100.00
2023-04-09T06:30:29.483Z,100.00
2023-04-09T06:35:34.568Z,100.00
2023-04-09T06:40:38.887Z,100.00
2023-04-09T06:45:42.598Z,100.00
2023-04-09T06:50:47.772Z,100.00
2023-04-09T06:55:52.029Z,100.00
2023-04-09T07:00:55.864Z,100.00
2023-04-09T07:06:00.943Z,100.00
2023-04-09T07:11:04.765Z,100.00
2023-04-09T07:16:08.609Z,100.00
2023-04-09T07:21:14.182Z,100.00
2023-04-09T07:26:17.884Z,100.00
2023-04-09T07:31:21.596Z,100.00
2023-04-09T07:36:27.990Z,100.00
2023-04-09T07:41:31.738Z,100.00
2023-04-09T07:46:35.445Z,100.00
2023-04-09T07:51:40.560Z,100.00
2023-04-09T07:56:44.324Z,100.00
2023-04-09T08:01:48.263Z,100.00
2023-04-09T08:06:53.964Z,100.00
2023-04-09T08:11:57.746Z,100.00
2023-04-09T08:17:01.765Z,100.00
2023-04-09T08:22:06.817Z,100.00
2023-04-09T08:27:10.544Z,100.00
2023-04-09T08:32:14.363Z,100.00
2023-04-09T08:37:19.449Z,100.00
2023-04-09T08:42:24.089Z,100.00
2023-04-09T08:47:28.531Z,100.00
2023-04-09T08:52:35.722Z,100.00
2023-04-09T08:57:39.934Z,100.00
2023-04-09T09:03:05.371Z,100.00
2023-04-09T09:08:11.864Z,100.00
2023-04-09T09:13:20.422Z,100.00
2023-04-09T09:18:40.404Z,100.00
2023-04-09T09:23:48.337Z,100.00
2023-04-09T09:28:53.048Z,100.00
2023-04-09T09:33:57.015Z,100.00
2023-04-09T09:39:05.344Z,100.00
2023-04-09T09:44:12.810Z,100.00
2023-04-09T09:49:16.576Z,100.00
2023-04-09T09:54:24.607Z,100.00
2023-04-09T09:59:34.626Z,100.00
2023-04-09T10:04:38.591Z,100.00
2023-04-09T10:09:49.241Z,100.00
2023-04-09T10:14:54.150Z,100.00
2023-04-09T10:20:02.815Z,100.00
2023-04-09T10:25:08.930Z,100.00
2023-04-09T10:30:33.009Z,100.00
2023-04-09T10:35:36.830Z,100.00
2023-04-09T10:40:49.489Z,97.40
2023-04-09T10:45:54.465Z,87.30
2023-04-09T10:50:58.215Z,92.05
2023-04-09T10:56:16.964Z,83.56
2023-04-09T11:01:24.020Z,75.48
2023-04-09T11:06:27.972Z,77.45
2023-04-09T11:11:34.860Z,75.37
2023-04-09T11:16:38.618Z,75.05
2023-04-09T11:21:46.079Z,79.07
2023-04-09T11:26:51.333Z,76.66
2023-04-09T11:31:55.207Z,80.08
2023-04-09T11:36:59.841Z,76.09
2023-04-09T11:42:04.961Z,75.79
2023-04-09T11:47:10.300Z,74.45
2023-04-09T11:52:16.497Z,67.24
2023-04-09T11:57:21.676Z,63.33
2023-04-09T12:02:25.705Z,63.83
2023-04-09T12:07:33.604Z,57.11
2023-04-09T12:12:46.499Z,56.67
2023-04-09T12:17:51.569Z,58.67
2023-04-09T12:22:55.553Z,57.54
2023-04-09T12:28:00.819Z,58.26
2023-04-09T12:33:05.954Z,60.07
2023-04-09T12:38:10.653Z,57.49
2023-04-09T12:43:15.717Z,52.79
2023-04-09T12:48:19.564Z,48.77
2023-04-09T12:53:23.238Z,47.81
2023-04-09T12:58:28.312Z,49.54
2023-04-09T13:03:32.346Z,48.50
2023-04-09T13:08:36.424Z,49.71
2023-04-09T13:13:42.695Z,47.53
2023-04-09T13:18:46.537Z,47.50
2023-04-09T13:23:50.208Z,44.97
2023-04-09T13:28:55.324Z,46.39
2023-04-09T13:33:58.992Z,46.37
2023-04-09T13:39:05.090Z,46.54
2023-04-09T13:44:10.207Z,46.66
2023-04-09T13:49:14.008Z,46.60
2023-04-09T13:54:17.800Z,48.00
2023-04-09T13:59:22.834Z,48.64
2023-04-09T14:04:26.696Z,49.20
2023-04-09T14:09:30.598Z,48.25
2023-04-09T14:14:35.649Z,47.10
2023-04-09T14:19:39.587Z,45.87
2023-04-09T14:24:43.247Z,46.33
2023-04-09T14:29:48.275Z,46.45
2023-04-09T14:34:51.990Z,45.74
2023-04-09T14:39:55.755Z,43.52
2023-04-09T14:45:00.991Z,42.81
2023-04-09T14:50:05.240Z,40.08
2023-04-09T14:55:12.445Z,39.78
2023-04-09T15:00:18.273Z,38.66
2023-04-09T15:05:22.108Z,36.01
2023-04-09T15:10:26.006Z,37.26
2023-04-09T15:15:31.175Z,39.06
2023-04-09T15:20:37.689Z,40.92
2023-04-09T15:25:41.460Z,41.90
2023-04-09T15:30:46.704Z,41.78
2023-04-09T15:35:50.451Z,42.69
2023-04-09T15:40:56.356Z,42.87
2023-04-09T15:46:08.768Z,42.65
2023-04-09T15:51:12.790Z,42.89
2023-04-09T15:56:16.841Z,43.00
2023-04-09T16:01:22.003Z,43.53
2023-04-09T16:06:25.885Z,43.95
2023-04-09T16:11:29.615Z,44.33
2023-04-09T16:16:34.720Z,44.10
2023-04-09T16:21:38.772Z,43.30
2023-04-09T16:26:43.701Z,42.96
2023-04-09T16:31:48.845Z,42.39
2023-04-09T16:36:52.652Z,42.60
2023-04-09T16:41:58.297Z,42.87
2023-04-09T16:47:03.713Z,42.74
2023-04-09T16:52:07.576Z,43.29
2023-04-09T16:57:11.468Z,45.52
2023-04-09T17:02:16.852Z,46.26
2023-04-09T17:07:20.674Z,47.29
2023-04-09T17:12:24.679Z,47.87
2023-04-09T17:17:29.899Z,48.39
2023-04-09T17:22:35.083Z,49.12
2023-04-09T17:27:38.827Z,49.17
2023-04-09T17:32:44.277Z,50.36
2023-04-09T17:37:48.072Z,50.80
2023-04-09T17:42:51.797Z,50.32
2023-04-09T17:47:57.165Z,51.71
2023-04-09T17:53:00.965Z,51.93
2023-04-09T17:58:04.660Z,53.33
2023-04-09T18:03:10.038Z,54.36
2023-04-09T18:08:13.970Z,54.50
2023-04-09T18:13:17.704Z,55.33
2023-04-09T18:18:22.793Z,55.73
2023-04-09T18:23:26.999Z,56.79
2023-04-09T18:28:30.756Z,57.77
2023-04-09T18:33:35.811Z,58.64
2023-04-09T18:38:39.574Z,59.85
2023-04-09T18:43:43.966Z,61.18
2023-04-09T18:48:49.117Z,63.03
2023-04-09T18:53:54.743Z,64.68
2023-04-09T18:58:58.420Z,64.97
2023-04-09T19:04:03.665Z,65.97
2023-04-09T19:09:07.449Z,68.36
2023-04-09T19:14:11.129Z,69.62
2023-04-09T19:19:16.357Z,70.68
2023-04-09T19:24:20.113Z,69.96
2023-04-09T19:29:23.781Z,69.38
2023-04-09T19:34:28.841Z,73.48
2023-04-09T19:39:32.588Z,72.80
2023-04-09T19:44:36.356Z,73.02
2023-04-09T19:49:41.684Z,73.05
2023-04-09T19:54:46.388Z,74.19
2023-04-09T19:59:52.160Z,73.67
2023-04-09T20:04:57.417Z,76.66
2023-04-09T20:10:01.312Z,77.24
2023-04-09T20:15:07.418Z,80.87
2023-04-09T20:20:13.928Z,81.45
2023-04-09T20:25:17.793Z,81.92
2023-04-09T20:30:22.622Z,83.71
2023-04-09T20:35:27.897Z,83.67
2023-04-09T20:40:32.458Z,82.96
2023-04-09T20:45:36.528Z,83.54
2023-04-09T20:50:42.118Z,83.80
2023-04-09T20:55:46.360Z,86.08
2023-04-09T21:00:50.117Z,85.72
2023-04-09T21:05:55.551Z,87.20
2023-04-09T21:10:59.512Z,88.44
2023-04-09T21:16:03.604Z,91.61
2023-04-09T21:21:09.219Z,94.21
2023-04-09T21:26:14.263Z,93.43
2023-04-09T21:31:18.118Z,97.18
2023-04-09T21:36:23.270Z,95.36
2023-04-09T21:41:27.107Z,97.60
2023-04-09T21:46:30.931Z,99.25
2023-04-09T21:51:36.029Z,98.92
2023-04-09T21:56:40.183Z,100.00
2023-04-09T22:01:43.965Z,100.00
2023-04-09T22:06:49.336Z,100.00
2023-04-09T22:11:53.543Z,100.00
2023-04-09T22:16:58.325Z,100.00
2023-04-09T22:22:03.703Z,100.00
2023-04-09T22:27:07.518Z,100.00
2023-04-09T22:32:11.517Z,100.00
2023-04-09T22:37:17.084Z,100.00
2023-04-09T22:42:20.813Z,100.00
2023-04-09T22:47:24.617Z,100.00
2023-04-09T22:52:29.647Z,100.00
2023-04-09T22:57:33.455Z,100.00
2023-04-09T23:02:37.416Z,100.00
2023-04-09T23:07:42.938Z,100.00
2023-04-09T23:12:46.864Z,100.00
2023-04-09T23:17:51.904Z,100.00
2023-04-09T23:22:56.987Z,100.00
2023-04-09T23:28:00.885Z,100.00
2023-04-09T23:33:04.806Z,100.00
2023-04-09T23:38:09.913Z,100.00
2023-04-09T23:43:13.669Z,100.00
2023-04-09T23:48:17.648Z,100.00
2023-04-09T23:53:22.763Z,100.00
2023-04-09T23:58:26.429Z,100.00
